Mtsensk, Russia
Current Conditions -  °F | °C
As of 1:30 AM on Tuesday 27 Jan 2015 (Local Time) from UUDD Reporting Station
Overcast Overcast  
Wind Chill: 12°   Ceiling: 3900
Heat Index: 12°   Visibility: 6mi
Dew Point: 10°   Wind: 2mph
Humidity: 92%   Direction: 110°ESE
Pressure: 30.18"   Gusts: NA
Location:  53.27°N, 36.55°E
Report Text: UUDD 262230Z 11001MPS 9999 OVC039 M11/M12 Q1022 14490194 NOSIG
Loading
Personal Weather Stations






























Interactive Weather Map New forecast layout! Learn more

10-Day Weather Forecast

Advertisements
Track Severe Weather on mobile